createdAt,value
2023-03-21T00:01:18.853Z,96859.78
2023-03-21T00:03:51.923Z,96852.97
2023-03-21T00:06:23.150Z,96857.22
2023-03-21T00:08:56.581Z,96858.22
2023-03-21T00:11:27.340Z,96836.44
2023-03-21T00:13:58.760Z,96831.75
2023-03-21T00:16:39.301Z,96830.69
2023-03-21T00:19:14.762Z,96813.88
2023-03-21T00:24:40.916Z,96811.88
2023-03-21T00:27:34.579Z,96806.97
2023-03-21T00:30:02.371Z,96806.81
2023-03-21T00:32:37.521Z,96802.88
2023-03-21T00:35:45.350Z,96801.28
2023-03-21T00:38:03.040Z,96806.28
2023-03-21T00:40:48.827Z,96800.81
2023-03-21T00:43:23.569Z,96813.22
2023-03-21T00:45:55.024Z,96809.88
2023-03-21T00:48:26.153Z,96795.66
2023-03-21T00:50:59.590Z,96806.50
2023-03-21T00:53:31.954Z,96796.25
2023-03-21T00:56:05.695Z,96804.88
2023-03-21T00:58:36.567Z,96803.22
2023-03-21T01:01:09.848Z,96798.06
2023-03-21T01:03:43.106Z,96804.50
2023-03-21T01:06:19.721Z,96793.25
2023-03-21T01:08:53.569Z,96789.47
2023-03-21T01:11:30.089Z,96791.81
2023-03-21T01:14:15.100Z,96780.94
2023-03-21T01:16:49.764Z,96778.22
2023-03-21T01:19:27.419Z,96768.41
2023-03-21T01:21:58.976Z,96771.66
2023-03-21T01:24:31.206Z,96776.69
2023-03-21T01:27:05.437Z,96759.88
2023-03-21T01:29:36.093Z,96751.47
2023-03-21T01:32:07.332Z,96765.41
2023-03-21T01:34:38.165Z,96762.09
2023-03-21T01:37:08.989Z,96751.88
2023-03-21T01:39:47.058Z,96747.28
2023-03-21T01:42:20.453Z,96746.09
2023-03-21T01:44:59.903Z,96744.25
2023-03-21T01:47:39.503Z,96746.22
2023-03-21T01:50:30.922Z,96748.88
2023-03-21T01:53:06.672Z,96749.03
2023-03-21T01:55:40.085Z,96756.50
2023-03-21T01:58:22.387Z,96755.50
2023-03-21T02:01:13.603Z,96750.50
2023-03-21T02:03:53.984Z,96745.19
2023-03-21T02:06:49.568Z,96741.53
2023-03-21T02:09:35.506Z,96734.59
2023-03-21T02:12:09.138Z,96738.56
2023-03-21T02:14:43.021Z,96739.88
2023-03-21T02:17:52.454Z,96741.38
2023-03-21T02:21:06.397Z,96741.84
2023-03-21T02:24:16.144Z,96750.13
2023-03-21T02:27:04.718Z,96741.19
2023-03-21T02:30:31.909Z,96741.50
2023-03-21T02:33:38.709Z,96734.00
2023-03-21T02:36:28.752Z,96733.66
2023-03-21T02:39:11.878Z,96736.16
2023-03-21T02:41:51.633Z,96742.94
2023-03-21T02:44:38.104Z,96745.25
2023-03-21T02:47:15.127Z,96746.91
2023-03-21T02:49:53.815Z,96753.03
2023-03-21T02:52:38.636Z,96756.34
2023-03-21T02:55:19.186Z,96760.47
2023-03-21T02:58:10.407Z,96769.28
2023-03-21T03:00:45.639Z,96761.31
2023-03-21T03:03:33.520Z,96760.19
2023-03-21T03:06:13.196Z,96781.38
2023-03-21T03:09:02.608Z,96771.56
2023-03-21T03:11:38.516Z,96777.25
2023-03-21T03:14:56.452Z,96790.81
2023-03-21T03:17:28.345Z,96783.03
2023-03-21T03:20:34.640Z,96776.88
2023-03-21T03:23:20.509Z,96781.72
2023-03-21T03:25:57.029Z,96787.84
2023-03-21T03:28:36.800Z,96793.66
2023-03-21T03:31:19.291Z,96790.81
2023-03-21T03:33:59.501Z,96789.22
2023-03-21T03:36:38.654Z,96780.94
2023-03-21T03:39:16.744Z,96783.94
2023-03-21T03:42:15.258Z,96784.13
2023-03-21T03:44:56.550Z,96771.53
2023-03-21T03:47:37.814Z,96779.34
2023-03-21T03:50:17.256Z,96777.81
2023-03-21T03:52:57.005Z,96778.66
2023-03-21T03:55:34.880Z,96778.31
2023-03-21T03:58:24.808Z,96781.13
2023-03-21T04:01:02.759Z,96782.28
2023-03-21T04:03:47.664Z,96769.03
2023-03-21T04:06:22.338Z,96783.94
2023-03-21T04:08:55.185Z,96773.16
2023-03-21T04:11:26.361Z,96786.59
2023-03-21T04:13:58.856Z,96780.81
2023-03-21T04:16:35.782Z,96775.31
2023-03-21T04:19:07.522Z,96756.09
2023-03-21T04:21:38.421Z,96775.31
2023-03-21T04:24:09.909Z,96773.81
2023-03-21T04:26:41.345Z,96770.66
2023-03-21T04:29:39.922Z,96760.56
2023-03-21T04:32:34.312Z,96765.03
2023-03-21T04:35:13.466Z,96763.34
2023-03-21T04:37:44.764Z,96763.03
2023-03-21T04:40:20.157Z,96751.25
2023-03-21T04:42:51.992Z,96757.59
2023-03-21T04:45:22.653Z,96755.63
2023-03-21T04:47:56.293Z,96756.28
2023-03-21T04:50:27.153Z,96763.91
2023-03-21T04:52:58.005Z,96758.75
2023-03-21T04:55:29.707Z,96764.38
2023-03-21T04:58:00.595Z,96771.84
2023-03-21T05:00:32.406Z,96772.69
2023-03-21T05:03:09.328Z,96777.31
2023-03-21T05:05:41.209Z,96782.63
2023-03-21T05:08:12.511Z,96786.91
2023-03-21T05:10:43.107Z,96785.09
2023-03-21T05:13:14.625Z,96774.97
2023-03-21T05:15:45.300Z,96783.25
2023-03-21T05:18:24.903Z,96788.75
2023-03-21T05:21:08.238Z,96788.59
2023-03-21T05:23:39.756Z,96796.75
2023-03-21T05:26:11.363Z,96792.22
2023-03-21T05:28:54.220Z,96789.59
2023-03-21T05:31:25.818Z,96794.56
2023-03-21T05:34:09.936Z,96795.19
2023-03-21T05:36:41.744Z,96795.84
2023-03-21T05:39:14.630Z,96792.81
2023-03-21T05:41:53.374Z,96790.13
2023-03-21T05:44:24.303Z,96796.72
2023-03-21T05:46:55.008Z,96799.97
2023-03-21T05:49:33.813Z,96798.59
2023-03-21T05:52:06.362Z,96793.38
2023-03-21T05:54:37.115Z,96797.22
2023-03-21T05:57:09.425Z,96783.31
2023-03-21T05:59:59.012Z,96786.00
2023-03-21T06:02:31.472Z,96786.22
2023-03-21T06:05:14.508Z,96785.78
2023-03-21T06:07:45.539Z,96784.91
2023-03-21T06:10:17.042Z,96775.31
2023-03-21T06:12:51.027Z,96777.75
2023-03-21T06:15:30.711Z,96778.69
2023-03-21T06:18:17.674Z,96775.06
2023-03-21T06:21:21.051Z,96767.16
2023-03-21T06:23:54.276Z,96775.00
2023-03-21T06:26:26.469Z,96779.03
2023-03-21T06:28:58.474Z,96778.06
2023-03-21T06:31:29.363Z,96780.38
2023-03-21T06:34:05.200Z,96775.06
2023-03-21T06:36:39.178Z,96783.31
2023-03-21T06:39:10.794Z,96784.59
2023-03-21T06:41:44.084Z,96792.84
2023-03-21T06:44:14.720Z,96796.16
2023-03-21T06:46:54.425Z,96794.94
2023-03-21T06:49:26.459Z,96802.19
2023-03-21T06:52:01.191Z,96798.69
2023-03-21T06:54:32.113Z,96806.44
2023-03-21T06:57:06.341Z,96797.59
2023-03-21T06:59:39.231Z,96792.97
2023-03-21T07:02:17.564Z,96796.06
2023-03-21T07:04:54.525Z,96786.03
2023-03-21T07:07:31.519Z,96796.31
2023-03-21T07:10:02.157Z,96794.47
2023-03-21T07:12:37.832Z,96791.41
2023-03-21T07:15:26.921Z,96794.47
2023-03-21T07:17:57.560Z,96801.69
2023-03-21T07:20:28.277Z,96802.50
2023-03-21T07:23:02.194Z,96809.03
2023-03-21T07:25:32.996Z,96795.44
2023-03-21T07:28:03.995Z,96802.88
2023-03-21T07:30:34.937Z,96802.13
2023-03-21T07:33:07.371Z,96789.47
2023-03-21T07:35:38.987Z,96790.75
2023-03-21T07:38:17.083Z,96792.66
2023-03-21T07:40:48.267Z,96793.31
2023-03-21T07:43:19.781Z,96791.19
2023-03-21T07:45:51.006Z,96784.97
2023-03-21T07:48:22.099Z,96783.56
2023-03-21T07:50:53.858Z,96787.59
2023-03-21T07:53:27.321Z,96781.25
2023-03-21T07:55:58.751Z,96785.75
2023-03-21T07:58:29.670Z,96783.22
2023-03-21T08:01:02.423Z,96777.25
2023-03-21T08:03:33.998Z,96781.66
2023-03-21T08:06:04.680Z,96780.28
2023-03-21T08:08:37.961Z,96773.50
2023-03-21T08:11:09.400Z,96772.50
2023-03-21T08:13:39.989Z,96775.13
2023-03-21T08:16:11.816Z,96769.97
2023-03-21T08:18:42.998Z,96770.78
2023-03-21T08:21:13.693Z,96779.66
2023-03-21T08:23:46.991Z,96777.28
2023-03-21T08:26:18.681Z,96776.84
2023-03-21T08:28:49.721Z,96771.56
2023-03-21T08:31:22.043Z,96762.56
2023-03-21T08:33:55.014Z,96763.84
2023-03-21T08:36:26.602Z,96768.41
2023-03-21T08:39:05.631Z,96764.31
2023-03-21T08:41:36.654Z,96756.38
2023-03-21T08:44:11.948Z,96763.06
2023-03-21T08:46:42.568Z,96762.50
2023-03-21T08:49:13.175Z,96762.84
2023-03-21T08:51:45.906Z,96763.75
2023-03-21T08:54:25.171Z,96759.28
2023-03-21T08:56:56.028Z,96761.25
2023-03-21T08:59:26.727Z,96755.06
2023-03-21T09:01:57.496Z,96754.22
2023-03-21T09:04:30.896Z,96761.91
2023-03-21T09:07:01.766Z,96752.50
2023-03-21T09:09:35.198Z,96742.38
2023-03-21T09:12:05.917Z,96747.84
2023-03-21T09:14:36.641Z,96738.69
2023-03-21T09:17:07.470Z,96745.94
2023-03-21T09:19:39.069Z,96741.09
2023-03-21T09:22:18.176Z,96741.78
2023-03-21T09:24:51.569Z,96735.22
2023-03-21T09:27:23.394Z,96742.25
2023-03-21T09:29:54.429Z,96737.34
2023-03-21T09:32:25.460Z,96745.19
2023-03-21T09:34:57.610Z,96745.19
2023-03-21T09:37:28.256Z,96741.09
2023-03-21T09:40:02.576Z,96736.28
2023-03-21T09:42:41.334Z,96739.00
2023-03-21T09:45:19.576Z,96733.00
2023-03-21T09:47:53.452Z,96732.44
2023-03-21T09:50:30.523Z,96727.50
2023-03-21T09:53:04.012Z,96706.53
2023-03-21T09:55:39.953Z,96726.59
2023-03-21T09:58:22.683Z,96721.44
2023-03-21T10:00:56.932Z,96722.81
2023-03-21T10:03:30.286Z,96722.13
2023-03-21T10:06:04.005Z,96725.50
2023-03-21T10:08:38.920Z,96727.78
2023-03-21T10:11:16.428Z,96724.13
2023-03-21T10:13:52.421Z,96719.41
2023-03-21T10:16:29.828Z,96710.19
2023-03-21T10:19:02.574Z,96716.47
2023-03-21T10:22:04.305Z,96725.81
2023-03-21T10:24:27.827Z,96710.44
2023-03-21T10:27:01.333Z,96714.38
2023-03-21T10:29:37.774Z,96717.66
2023-03-21T10:32:12.327Z,96713.13
2023-03-21T10:34:47.103Z,96718.63
2023-03-21T10:37:18.162Z,96712.50
2023-03-21T10:39:50.400Z,96712.56
2023-03-21T10:42:26.838Z,96717.25
2023-03-21T10:44:59.452Z,96714.63
2023-03-21T10:47:33.927Z,96716.25
2023-03-21T10:50:08.596Z,96717.16
2023-03-21T10:52:45.212Z,96697.72
2023-03-21T10:55:26.229Z,96700.34
2023-03-21T10:58:02.621Z,96704.19
2023-03-21T11:00:39.135Z,96699.38
2023-03-21T11:03:11.417Z,96702.06
2023-03-21T11:05:44.507Z,96689.06
2023-03-21T11:08:18.242Z,96687.41
2023-03-21T11:10:56.980Z,96677.16
2023-03-21T11:13:39.856Z,96669.66
2023-03-21T11:16:13.254Z,96657.50
2023-03-21T11:18:47.664Z,96657.00
2023-03-21T11:21:19.011Z,96646.00
2023-03-21T11:23:53.079Z,96645.00
2023-03-21T11:26:29.140Z,96643.28
2023-03-21T11:29:02.589Z,96637.16
2023-03-21T11:31:41.825Z,96633.22
2023-03-21T11:34:13.213Z,96639.56
2023-03-21T11:36:43.828Z,96626.91
2023-03-21T11:39:33.424Z,96632.06
2023-03-21T11:42:04.269Z,96616.28
2023-03-21T11:44:46.301Z,96612.13
2023-03-21T11:47:16.969Z,96609.06
2023-03-21T11:49:49.604Z,96611.72
2023-03-21T11:52:32.671Z,96610.00
2023-03-21T11:55:36.314Z,96611.50
2023-03-21T11:58:26.235Z,96618.41
2023-03-21T12:01:09.424Z,96614.44
2023-03-21T12:03:51.630Z,96605.94
2023-03-21T12:06:31.637Z,96597.22
2023-03-21T12:09:31.616Z,96597.94
2023-03-21T12:12:12.884Z,96592.78
2023-03-21T12:14:55.878Z,96598.19
2023-03-21T12:17:39.165Z,96593.63
2023-03-21T12:20:33.148Z,96591.16
2023-03-21T12:23:19.166Z,96594.63
2023-03-21T12:25:56.630Z,96601.59
2023-03-21T12:28:38.495Z,96602.06
2023-03-21T12:31:21.339Z,96599.84
2023-03-21T12:34:08.602Z,96596.53
2023-03-21T12:36:59.385Z,96594.00
2023-03-21T12:39:33.751Z,96584.41
2023-03-21T12:42:22.620Z,96576.06
2023-03-21T12:45:00.784Z,96583.59
2023-03-21T12:47:37.620Z,96573.69
2023-03-21T12:50:18.700Z,96577.84
2023-03-21T12:52:53.667Z,96577.41
2023-03-21T12:55:26.886Z,96587.31
2023-03-21T12:58:04.668Z,96587.47
2023-03-21T13:00:39.917Z,96583.28
2023-03-21T13:03:22.795Z,96591.03
2023-03-21T13:05:59.742Z,96582.53
2023-03-21T13:08:36.954Z,96569.19
2023-03-21T13:11:09.900Z,96578.00
2023-03-21T13:13:47.653Z,96570.88
2023-03-21T13:16:23.526Z,96576.28
2023-03-21T13:19:05.140Z,96581.31
2023-03-21T13:21:48.302Z,96578.16
2023-03-21T13:24:28.638Z,96571.50
2023-03-21T13:27:08.193Z,96569.53
2023-03-21T13:29:50.370Z,96566.41
2023-03-21T13:32:31.334Z,96571.44
2023-03-21T13:35:04.842Z,96571.31
2023-03-21T13:37:42.437Z,96570.97
2023-03-21T13:40:26.343Z,96560.69
2023-03-21T13:42:59.776Z,96558.47
2023-03-21T13:45:35.023Z,96540.13
2023-03-21T13:48:07.361Z,96557.41
2023-03-21T13:50:53.808Z,96564.94
2023-03-21T13:53:34.162Z,96560.47
2023-03-21T13:56:25.493Z,96558.38
2023-03-21T13:59:05.931Z,96559.41
2023-03-21T14:01:53.105Z,96559.66
2023-03-21T14:04:36.814Z,96562.81
2023-03-21T14:07:16.251Z,96561.44
2023-03-21T14:09:52.364Z,96552.75
2023-03-21T14:12:28.013Z,96555.44
2023-03-21T14:15:14.093Z,96552.75
2023-03-21T14:17:54.707Z,96547.03
2023-03-21T14:20:27.839Z,96550.28
2023-03-21T14:22:58.847Z,96553.81
2023-03-21T14:25:46.640Z,96557.34
2023-03-21T14:28:21.502Z,96546.56
2023-03-21T14:30:58.113Z,96549.25
2023-03-21T14:33:35.479Z,96546.34
2023-03-21T14:36:09.696Z,96554.97
2023-03-21T14:38:42.227Z,96545.28
2023-03-21T14:41:26.933Z,96550.66
2023-03-21T14:44:18.174Z,96546.91
2023-03-21T14:46:48.702Z,96545.84
2023-03-21T14:49:24.968Z,96540.94
2023-03-21T14:51:58.513Z,96542.56
2023-03-21T14:54:30.352Z,96539.78
2023-03-21T14:57:05.762Z,96539.78
2023-03-21T14:59:39.375Z,96546.19
2023-03-21T15:02:21.847Z,96537.78
2023-03-21T15:04:54.836Z,96538.00
2023-03-21T15:07:30.852Z,96542.22
2023-03-21T15:10:04.071Z,96541.91
2023-03-21T15:12:37.724Z,96543.41
2023-03-21T15:15:09.821Z,96525.41
2023-03-21T15:17:41.083Z,96541.44
2023-03-21T15:20:17.292Z,96545.16
2023-03-21T15:22:52.372Z,96543.31
2023-03-21T15:25:29.147Z,96548.09
2023-03-21T15:28:04.320Z,96549.97
2023-03-21T15:30:36.311Z,96548.59
2023-03-21T15:33:11.741Z,96555.03
2023-03-21T15:35:46.255Z,96547.41
2023-03-21T15:38:26.777Z,96558.88
2023-03-21T15:41:17.810Z,96550.69
2023-03-21T15:43:57.729Z,96551.00
2023-03-21T15:46:37.431Z,96558.50
2023-03-21T15:49:12.209Z,96558.38
2023-03-21T15:51:45.385Z,96552.38
2023-03-21T15:54:20.636Z,96555.31
2023-03-21T15:56:52.192Z,96543.75
2023-03-21T15:59:28.724Z,96538.81
2023-03-21T16:01:59.520Z,96543.03
2023-03-21T16:04:30.552Z,96543.72
2023-03-21T16:07:03.426Z,96539.25
2023-03-21T16:09:44.773Z,96546.97
2023-03-21T16:12:18.930Z,96542.88
2023-03-21T16:14:52.623Z,96543.13
2023-03-21T16:17:31.260Z,96550.59
2023-03-21T16:20:01.882Z,96548.94
2023-03-21T16:22:36.902Z,96547.31
2023-03-21T16:25:07.930Z,96542.88
2023-03-21T16:27:38.493Z,96558.06
2023-03-21T16:30:15.858Z,96556.44
2023-03-21T16:32:46.847Z,96558.78
2023-03-21T16:35:18.067Z,96561.22
2023-03-21T16:37:50.992Z,96561.69
2023-03-21T16:40:29.924Z,96568.13
2023-03-21T16:43:01.123Z,96559.44
2023-03-21T16:45:34.675Z,96550.81
2023-03-21T16:48:06.373Z,96559.91
2023-03-21T16:50:40.730Z,96562.47
2023-03-21T16:53:13.566Z,96555.44
2023-03-21T16:55:45.650Z,96561.06
2023-03-21T16:58:19.028Z,96555.91
2023-03-21T17:00:56.676Z,96561.75
2023-03-21T17:03:29.177Z,96559.50
2023-03-21T17:06:01.541Z,96563.47
2023-03-21T17:08:32.680Z,96558.78
2023-03-21T17:11:06.639Z,96556.78
2023-03-21T17:13:41.151Z,96558.72
2023-03-21T17:16:22.051Z,96567.94
2023-03-21T17:18:54.878Z,96565.56
2023-03-21T17:21:32.150Z,96566.47
2023-03-21T17:24:04.902Z,96563.38
2023-03-21T17:26:38.588Z,96570.22
2023-03-21T17:29:10.454Z,96561.00
2023-03-21T17:31:47.569Z,96564.19
2023-03-21T17:34:19.182Z,96567.94
2023-03-21T17:36:51.932Z,96574.59
2023-03-21T17:39:25.642Z,96571.34
2023-03-21T17:41:59.465Z,96573.47
2023-03-21T17:44:34.084Z,96579.69
2023-03-21T17:47:08.503Z,96558.34
2023-03-21T17:49:39.561Z,96578.34
2023-03-21T17:52:12.995Z,96580.66
2023-03-21T17:54:43.930Z,96570.63
2023-03-21T17:57:15.157Z,96577.44
2023-03-21T17:59:46.002Z,96577.28
2023-03-21T18:02:20.797Z,96580.84
2023-03-21T18:04:51.361Z,96578.00
2023-03-21T18:07:42.716Z,96580.28
2023-03-21T18:10:18.491Z,96586.13
2023-03-21T18:12:52.907Z,96568.66
2023-03-21T18:15:24.416Z,96569.72
2023-03-21T18:17:58.377Z,96564.22
2023-03-21T18:20:50.562Z,96568.81
2023-03-21T18:23:21.284Z,96569.66
2023-03-21T18:25:53.180Z,96574.44
2023-03-21T18:28:24.686Z,96564.56
2023-03-21T18:31:09.520Z,96578.59
2023-03-21T18:33:45.413Z,96579.19
2023-03-21T18:36:24.861Z,96582.09
2023-03-21T18:38:57.021Z,96573.06
2023-03-21T18:41:27.961Z,96577.00
2023-03-21T18:44:02.971Z,96574.16
2023-03-21T18:46:47.309Z,96580.13
2023-03-21T18:50:05.489Z,96583.44
2023-03-21T18:52:12.733Z,96582.25
2023-03-21T18:54:44.367Z,96576.47
2023-03-21T19:00:11.328Z,96570.56
2023-03-21T19:02:46.273Z,96572.41
2023-03-21T19:05:24.529Z,96569.13
2023-03-21T19:07:56.255Z,96573.22
2023-03-21T19:10:27.396Z,96579.63
2023-03-21T19:12:58.842Z,96575.50
2023-03-21T19:15:29.910Z,96575.13
2023-03-21T19:18:34.419Z,96581.50
2023-03-21T19:20:58.795Z,96583.81
2023-03-21T19:23:40.833Z,96580.31
2023-03-21T19:26:14.285Z,96582.41
2023-03-21T19:28:44.934Z,96580.16
2023-03-21T19:31:15.695Z,96561.66
2023-03-21T19:33:46.461Z,96585.31
2023-03-21T19:36:22.848Z,96580.38
2023-03-21T19:38:54.550Z,96588.22
2023-03-21T19:41:25.428Z,96587.00
2023-03-21T19:43:56.640Z,96584.16
2023-03-21T19:46:27.836Z,96593.63
2023-03-21T19:48:59.328Z,96587.06
2023-03-21T19:51:33.548Z,96589.09
2023-03-21T19:54:07.926Z,96592.81
2023-03-21T19:56:38.905Z,96594.25
2023-03-21T19:59:10.214Z,96595.31
2023-03-21T20:01:41.295Z,96603.34
2023-03-21T20:04:12.413Z,96603.53
2023-03-21T20:06:46.310Z,96605.41
2023-03-21T20:09:50.850Z,96602.94
2023-03-21T20:12:08.697Z,96605.81
2023-03-21T20:14:40.768Z,96600.47
2023-03-21T20:17:11.647Z,96603.56
2023-03-21T20:19:42.316Z,96609.34
2023-03-21T20:22:24.491Z,96610.34
2023-03-21T20:25:05.529Z,96614.06
2023-03-21T20:27:41.425Z,96614.28
2023-03-21T20:30:15.964Z,96619.03
2023-03-21T20:32:48.341Z,96614.09
2023-03-21T20:35:36.732Z,96618.84
2023-03-21T20:38:14.730Z,96619.84
2023-03-21T20:40:45.880Z,96622.50
2023-03-21T20:44:02.182Z,96624.59
2023-03-21T20:46:09.404Z,96618.59
2023-03-21T20:48:41.277Z,96614.72
2023-03-21T20:54:07.644Z,96602.78
2023-03-21T20:56:38.532Z,96596.81
2023-03-21T20:59:17.778Z,96602.78
2023-03-21T21:01:56.003Z,96599.84
2023-03-21T21:07:21.422Z,96599.25
2023-03-21T21:09:57.148Z,96606.88
2023-03-21T21:12:29.218Z,96605.66
2023-03-21T21:14:59.910Z,96611.38
2023-03-21T21:18:03.617Z,96610.97
2023-03-21T21:20:24.618Z,96621.25
2023-03-21T21:23:00.654Z,96616.53
2023-03-21T21:25:36.368Z,96617.56
2023-03-21T21:28:09.396Z,96627.81
2023-03-21T21:30:42.153Z,96629.47
2023-03-21T21:33:14.847Z,96639.34
2023-03-21T21:35:48.186Z,96633.16
2023-03-21T21:38:20.282Z,96634.19
2023-03-21T21:40:54.549Z,96634.19
2023-03-21T21:43:25.380Z,96635.03
2023-03-21T21:45:56.670Z,96630.47
2023-03-21T21:48:27.886Z,96642.22
2023-03-21T21:50:59.212Z,96641.41
2023-03-21T21:53:30.087Z,96642.22
2023-03-21T21:56:04.486Z,96652.09
2023-03-21T21:58:38.746Z,96640.16
2023-03-21T22:01:10.149Z,96647.16
2023-03-21T22:03:41.384Z,96637.47
2023-03-21T22:06:12.834Z,96637.69
2023-03-21T22:08:47.221Z,96643.63
2023-03-21T22:11:21.730Z,96649.59
2023-03-21T22:13:52.615Z,96641.75
2023-03-21T22:16:23.249Z,96649.56
2023-03-21T22:18:53.973Z,96650.34
2023-03-21T22:21:24.730Z,96655.06
2023-03-21T22:23:55.288Z,96652.75
2023-03-21T22:26:28.745Z,96653.56
2023-03-21T22:29:00.152Z,96649.00
2023-03-21T22:31:31.004Z,96651.06
2023-03-21T22:34:01.793Z,96647.75
2023-03-21T22:36:32.447Z,96646.09
2023-03-21T22:39:03.150Z,96653.06
2023-03-21T22:41:36.403Z,96643.44
2023-03-21T22:44:07.069Z,96648.34
2023-03-21T22:46:37.951Z,96651.44
2023-03-21T22:49:09.965Z,96635.19
2023-03-21T22:51:42.161Z,96647.97
2023-03-21T22:54:12.829Z,96642.63
2023-03-21T22:56:46.438Z,96648.75
2023-03-21T22:59:18.596Z,96643.44
2023-03-21T23:01:49.713Z,96641.59
2023-03-21T23:04:20.588Z,96640.75
2023-03-21T23:06:51.862Z,96632.91
2023-03-21T23:09:23.115Z,96641.19
2023-03-21T23:11:56.704Z,96628.78
2023-03-21T23:14:28.119Z,96645.25
2023-03-21T23:17:00.414Z,96633.09
2023-03-21T23:19:32.719Z,96645.47
2023-03-21T23:22:03.451Z,96644.81
2023-03-21T23:24:34.100Z,96641.34
2023-03-21T23:27:08.423Z,96619.44
2023-03-21T23:29:39.045Z,96645.56
2023-03-21T23:32:09.859Z,96628.25
2023-03-21T23:34:40.582Z,96620.63
2023-03-21T23:37:11.381Z,96642.03
2023-03-21T23:39:42.587Z,96633.88
2023-03-21T23:42:15.781Z,96637.56
2023-03-21T23:44:46.671Z,96638.19
2023-03-21T23:47:18.518Z,96637.63
2023-03-21T23:49:50.321Z,96642.09
2023-03-21T23:52:21.108Z,96631.66
2023-03-21T23:54:52.265Z,96617.72
2023-03-21T23:57:25.633Z,96632.53
2023-03-21T23:59:57.716Z,96633.19
